Time;durP1;ratioP1;P1;durP2;ratioP2;P2;SDS_P1;SDS_P2;PMS_P1;PMS_P2;Temp;Humidity;BMP_temperature;BMP_pressure;BME280_temperature;BME280_humidity;BME280_pressure;Samples;Min_cycle;Max_cycle;Signal;HPM_P1;HPM_P2
2022/10/24 00:01:22;;;;;;;9.25;2.08;;;;;;;14.55;91.67;100360.22;5118063;27;20073;-72
2022/10/24 00:03:49;;;;;;;6.03;2.00;;;;;;;14.55;91.70;100354.94;5129711;27;20047;-72
2022/10/24 00:06:19;;;;;;;7.57;1.98;;;;;;;14.54;91.60;100351.41;5127397;27;20051;-73
2022/10/24 00:08:47;;;;;;;7.20;1.90;;;;;;;14.53;91.47;100355.00;5119502;27;20043;-73
2022/10/24 00:11:26;;;;;;;7.63;1.65;;;;;;;14.51;91.55;100356.03;5123083;27;20040;-72
2022/10/24 00:13:56;;;;;;;7.13;1.85;;;;;;;14.51;91.38;100356.03;5124982;27;20044;-73
2022/10/24 00:16:25;;;;;;;7.93;2.13;;;;;;;14.49;91.45;100356.13;5123739;27;20050;-72
2022/10/24 00:18:53;;;;;;;6.35;1.92;;;;;;;14.48;91.49;100345.56;5122493;27;20055;-72
2022/10/24 00:21:21;;;;;;;6.35;1.83;;;;;;;14.48;91.42;100348.22;5126366;27;20044;-72
2022/10/24 00:23:48;;;;;;;10.38;1.70;;;;;;;14.47;91.28;100338.56;5120884;27;20515;-73
2022/10/24 00:26:16;;;;;;;7.35;2.00;;;;;;;14.46;91.10;100340.38;5119427;27;20087;-71
2022/10/24 00:28:43;;;;;;;5.40;1.83;;;;;;;14.45;90.97;100336.84;5122736;27;20055;-72
2022/10/24 00:31:17;;;;;;;4.88;1.85;;;;;;;14.45;90.85;100336.84;5127144;27;20039;-72
2022/10/24 00:33:48;;;;;;;8.45;2.10;;;;;;;14.45;90.77;100336.00;5121278;27;20529;-71
2022/10/24 00:36:19;;;;;;;7.45;2.00;;;;;;;14.44;90.75;100335.16;5131914;27;20093;-71
2022/10/24 00:38:49;;;;;;;7.68;1.95;;;;;;;14.43;90.65;100333.44;5116779;27;20036;-71
2022/10/24 00:41:33;;;;;;;4.50;1.60;;;;;;;14.42;90.39;100337.03;5127056;27;20048;-71
2022/10/24 00:44:28;;;;;;;3.67;1.58;;;;;;;14.43;90.28;100332.56;5114261;27;20506;-71
2022/10/24 00:47:05;;;;;;;6.80;1.98;;;;;;;14.43;89.97;100328.13;5121148;27;20036;-71
2022/10/24 00:50:03;;;;;;;9.73;1.80;;;;;;;14.46;89.83;100335.06;5121863;27;20044;-71
2022/10/24 00:52:41;;;;;;;7.07;1.85;;;;;;;14.47;89.43;100327.94;5115032;27;20048;-71
2022/10/24 00:55:11;;;;;;;8.75;1.92;;;;;;;14.50;89.89;100328.63;5129677;27;20032;-71
2022/10/24 00:57:53;;;;;;;7.32;1.65;;;;;;;14.54;89.39;100324.03;5123529;27;20044;-71
2022/10/24 01:00:26;;;;;;;5.70;1.80;;;;;;;14.59;89.43;100320.19;5132365;27;20117;-71
2022/10/24 01:02:54;;;;;;;8.35;1.75;;;;;;;14.62;89.16;100316.50;5119906;27;20047;-71
2022/10/24 01:05:27;;;;;;;5.65;1.40;;;;;;;14.62;88.99;100319.16;5131110;27;20048;-71
2022/10/24 01:08:13;;;;;;;8.48;1.77;;;;;;;14.60;88.62;100316.56;5124103;27;20086;-71
2022/10/24 01:10:53;;;;;;;6.68;2.10;;;;;;;14.59;88.47;100314.88;5128215;27;20040;-72
2022/10/24 01:13:53;;;;;;;6.00;1.50;;;;;;;14.57;88.30;100313.25;5120757;27;20086;-73
2022/10/24 01:16:49;;;;;;;7.32;2.03;;;;;;;14.54;87.97;100314.28;5097897;28;20121;-73
2022/10/24 01:19:49;;;;;;;6.22;1.98;;;;;;;14.51;88.15;100309.13;5122552;27;20055;-71
2022/10/24 01:22:36;;;;;;;10.23;2.13;;;;;;;14.49;88.11;100307.50;5118173;27;20068;-71
2022/10/24 01:25:34;;;;;;;4.68;1.67;;;;;;;14.48;87.75;100300.50;5126391;27;20516;-72
2022/10/24 01:28:10;;;;;;;5.38;1.85;;;;;;;14.46;87.91;100303.25;5126082;27;20129;-72
2022/10/24 01:31:00;;;;;;;8.23;2.15;;;;;;;14.46;87.73;100305.88;5124978;27;20035;-71
2022/10/24 01:33:48;;;;;;;11.52;1.90;;;;;;;14.44;87.35;100302.47;5112365;27;20032;-71
2022/10/24 01:36:31;;;;;;;6.20;1.95;;;;;;;14.46;87.04;100308.53;5113726;27;20044;-71
2022/10/24 01:39:05;;;;;;;8.45;1.90;;;;;;;14.47;86.38;100298.78;5118632;27;20040;-72
2022/10/24 01:41:34;;;;;;;4.72;2.05;;;;;;;14.50;86.74;100299.44;5122431;27;20486;-72
2022/10/24 01:44:09;;;;;;;7.30;2.00;;;;;;;14.53;86.33;100293.16;5116178;27;20032;-72
2022/10/24 01:46:51;;;;;;;5.90;1.95;;;;;;;14.53;86.43;100290.50;5119935;27;20044;-72
2022/10/24 01:49:24;;;;;;;10.55;2.03;;;;;;;14.55;86.21;100297.41;5115781;27;20039;-71
2022/10/24 01:51:58;;;;;;;5.68;1.90;;;;;;;14.58;85.88;100291.94;5121614;27;20040;-71
2022/10/24 01:54:27;;;;;;;9.88;2.00;;;;;;;14.60;85.80;100275.94;5116327;27;20072;-72
2022/10/24 01:56:54;;;;;;;7.55;1.95;;;;;;;14.65;85.64;100288.94;5119088;27;20036;-71
2022/10/24 01:59:27;;;;;;;5.85;1.70;;;;;;;14.69;85.30;100274.63;5129335;27;20125;-72
2022/10/24 02:02:04;;;;;;;5.28;1.63;;;;;;;14.73;84.82;100277.00;5121417;27;20127;-72
2022/10/24 02:04:39;;;;;;;3.08;1.42;;;;;;;14.77;84.52;100272.38;5123550;27;20108;-72
2022/10/24 02:07:10;;;;;;;6.47;1.80;;;;;;;14.84;84.27;100270.22;5121864;27;20040;-72
2022/10/24 02:09:42;;;;;;;5.82;1.60;;;;;;;14.88;83.92;100269.09;5124613;27;20480;-71
2022/10/24 02:12:15;;;;;;;5.10;1.50;;;;;;;14.91;83.85;100272.41;5130144;27;20063;-73
2022/10/24 02:14:53;;;;;;;4.60;1.33;;;;;;;14.96;83.16;100266.84;5121575;27;20052;-72
2022/10/24 02:17:20;;;;;;;6.00;1.50;;;;;;;14.99;82.95;100269.34;5114167;27;20197;-72
2022/10/24 02:19:48;;;;;;;5.82;1.55;;;;;;;15.05;82.56;100262.81;5127777;27;20039;-71
2022/10/24 02:22:40;;;;;;;5.25;1.40;;;;;;;15.07;82.18;100263.59;5125612;27;20039;-72
2022/10/24 02:25:20;;;;;;;2.38;1.30;;;;;;;15.10;81.23;100263.41;5127514;27;20039;-72
2022/10/24 02:28:08;;;;;;;5.72;1.40;;;;;;;15.13;81.00;100265.03;5120951;27;20147;-71
2022/10/24 02:30:44;;;;;;;4.90;1.30;;;;;;;15.16;81.07;100262.19;5111848;27;20055;-72
2022/10/24 02:33:14;;;;;;;7.95;1.58;;;;;;;15.15;80.87;100257.84;5123706;27;20044;-73
2022/10/24 02:35:45;;;;;;;7.10;1.55;;;;;;;15.13;81.06;100257.91;5115768;27;20043;-72
2022/10/24 02:38:21;;;;;;;8.23;1.55;;;;;;;15.11;81.16;100251.81;5114666;27;20082;-72
2022/10/24 02:40:52;;;;;;;5.50;1.25;;;;;;;15.07;80.73;100261.78;5112652;27;20051;-72
2022/10/24 02:43:22;;;;;;;4.60;1.23;;;;;;;15.07;80.38;100266.25;5126753;27;20043;-71
2022/10/24 02:45:53;;;;;;;6.35;1.60;;;;;;;15.05;80.30;100255.72;5119440;27;20046;-71
2022/10/24 02:48:29;;;;;;;3.58;1.60;;;;;;;15.07;80.03;100267.06;5121970;27;20091;-72
2022/10/24 02:50:57;;;;;;;4.57;1.55;;;;;;;15.10;79.56;100268.72;5128058;27;20044;-71
2022/10/24 02:53:26;;;;;;;6.82;1.50;;;;;;;15.11;79.69;100261.59;5117644;27;20042;-72
2022/10/24 02:55:54;;;;;;;5.57;1.58;;;;;;;15.11;79.63;100259.78;5123378;27;20047;-72
2022/10/24 02:58:21;;;;;;;3.85;1.30;;;;;;;15.09;79.64;100266.13;5131841;27;20040;-71
2022/10/24 03:00:48;;;;;;;3.88;1.25;;;;;;;15.09;79.21;100260.81;5123569;27;20070;-71
2022/10/24 03:03:15;;;;;;;4.38;1.40;;;;;;;15.09;78.62;100266.13;5123371;27;20042;-72
2022/10/24 03:05:42;;;;;;;4.35;1.35;;;;;;;15.09;78.18;100267.00;5115854;27;20032;-71
2022/10/24 03:08:11;;;;;;;3.28;1.33;;;;;;;15.11;78.11;100265.09;5121131;27;20047;-71
2022/10/24 03:10:39;;;;;;;5.00;1.40;;;;;;;15.11;78.37;100265.09;5116999;27;20048;-70
2022/10/24 03:13:06;;;;;;;2.67;1.20;;;;;;;15.10;78.28;100262.53;5116630;27;20085;-71
2022/10/24 03:15:33;;;;;;;2.53;1.13;;;;;;;15.07;77.87;100261.78;5115610;27;20501;-71
2022/10/24 03:18:00;;;;;;;2.67;1.02;;;;;;;15.03;78.31;100257.59;5115485;27;20055;-71
2022/10/24 03:20:27;;;;;;;4.85;1.83;;;;;;;15.03;77.90;100270.00;5120570;27;20051;-71
2022/10/24 03:22:54;;;;;;;3.13;1.05;;;;;;;15.04;77.62;100277.91;5124447;27;20044;-70
2022/10/24 03:25:21;;;;;;;6.30;1.30;;;;;;;15.05;77.98;100269.00;5121508;27;20047;-71
2022/10/24 03:27:48;;;;;;;4.38;1.10;;;;;;;15.05;77.82;100278.75;5112742;27;20032;-71
2022/10/24 03:30:15;;;;;;;4.22;1.02;;;;;;;15.04;77.83;100280.56;5116971;27;20129;-71
2022/10/24 03:32:42;;;;;;;2.80;1.20;;;;;;;15.04;78.01;100277.03;5123482;27;20067;-71
2022/10/24 03:35:11;;;;;;;4.35;1.20;;;;;;;15.02;77.69;100274.47;5125168;27;20074;-71
2022/10/24 03:37:40;;;;;;;4.95;1.23;;;;;;;15.01;77.62;100269.22;5110813;27;20126;-71
2022/10/24 03:40:09;;;;;;;5.55;1.35;;;;;;;15.01;77.42;100269.22;5122359;27;20123;-71
2022/10/24 03:42:38;;;;;;;2.17;0.90;;;;;;;15.05;77.13;100268.13;5111581;27;20040;-71
2022/10/24 03:45:06;;;;;;;5.10;1.13;;;;;;;15.10;76.91;100275.81;5114012;27;20450;-71
2022/10/24 03:47:33;;;;;;;5.75;1.05;;;;;;;15.10;77.20;100273.16;5111743;27;20044;-71
2022/10/24 03:50:00;;;;;;;6.40;1.20;;;;;;;15.10;77.12;100265.19;5122466;27;22012;-71
2022/10/24 03:52:27;;;;;;;5.68;1.00;;;;;;;15.09;77.06;100267.00;5117652;27;20962;-71
2022/10/24 03:54:54;;;;;;;2.75;1.20;;;;;;;15.06;77.14;100265.38;5120446;27;20432;-72
2022/10/24 03:57:21;;;;;;;6.78;1.35;;;;;;;15.05;77.13;100268.13;5114240;27;20048;-72
2022/10/24 03:59:49;;;;;;;5.13;1.20;;;;;;;15.03;77.11;100273.53;5118014;27;20153;-72
2022/10/24 04:02:16;;;;;;;9.25;1.40;;;;;;;15.01;77.10;100275.41;5116251;27;20047;-71
2022/10/24 04:04:43;;;;;;;4.28;1.50;;;;;;;15.00;77.17;100268.38;5126684;27;20036;-72
2022/10/24 04:07:10;;;;;;;5.35;1.38;;;;;;;14.99;77.06;100266.69;5113666;27;20036;-71
2022/10/24 04:09:37;;;;;;;4.93;1.23;;;;;;;14.99;76.90;100269.34;5123321;27;20048;-71
2022/10/24 04:12:04;;;;;;;4.60;1.30;;;;;;;15.02;76.61;100263.84;5112880;27;20036;-72
2022/10/24 04:14:31;;;;;;;7.38;1.40;;;;;;;15.06;76.28;100270.66;5115414;27;22292;-71
2022/10/24 04:16:58;;;;;;;5.43;1.02;;;;;;;15.09;76.05;100268.78;5120687;27;20048;-72
2022/10/24 04:19:25;;;;;;;4.38;1.40;;;;;;;15.09;76.60;100269.66;5122606;27;20097;-72
2022/10/24 04:21:53;;;;;;;2.40;1.02;;;;;;;15.09;76.78;100274.97;5115327;27;20563;-72
2022/10/24 04:24:20;;;;;;;8.05;1.80;;;;;;;15.09;76.72;100274.97;5110599;27;20040;-72
2022/10/24 04:26:47;;;;;;;5.25;1.20;;;;;;;15.09;76.31;100271.44;5121788;27;20041;-72
2022/10/24 04:29:14;;;;;;;4.50;1.10;;;;;;;15.08;76.33;100275.91;5122708;27;20040;-72
2022/10/24 04:31:41;;;;;;;7.35;1.10;;;;;;;15.10;76.31;100268.72;5128385;27;20492;-71
2022/10/24 04:34:08;;;;;;;6.05;1.10;;;;;;;15.11;76.07;100267.75;5122764;27;20522;-71
2022/10/24 04:36:35;;;;;;;9.60;1.30;;;;;;;15.11;76.14;100269.56;5122351;27;20061;-72
2022/10/24 04:39:02;;;;;;;4.93;1.20;;;;;;;15.07;76.27;100267.06;5119571;27;20044;-71
2022/10/24 04:41:30;;;;;;;4.32;1.30;;;;;;;15.09;76.41;100259.03;5124850;27;20497;-72
2022/10/24 04:43:57;;;;;;;5.78;1.17;;;;;;;15.10;76.01;100259.88;5121957;27;20127;-72
2022/10/24 04:46:24;;;;;;;4.50;1.10;;;;;;;15.13;75.95;100257.06;5121459;27;20043;-70
2022/10/24 04:48:52;;;;;;;5.45;1.08;;;;;;;15.13;76.11;100263.22;5122102;27;20040;-71
2022/10/24 04:51:20;;;;;;;6.55;1.30;;;;;;;15.14;75.75;100256.97;5121494;27;20480;-73
2022/10/24 04:53:49;;;;;;;6.50;1.58;;;;;;;15.14;75.66;100259.63;5122388;27;20470;-70
2022/10/24 04:56:18;;;;;;;7.45;1.30;;;;;;;15.15;75.71;100261.31;5128683;27;20032;-70
2022/10/24 04:58:45;;;;;;;9.68;1.35;;;;;;;15.16;75.44;100263.03;5129749;27;20718;-70
2022/10/24 05:01:12;;;;;;;5.07;0.98;;;;;;;15.19;75.13;100264.66;5120459;27;20047;-71
2022/10/24 05:03:39;;;;;;;8.07;1.20;;;;;;;15.19;75.63;100262.88;5115936;27;20115;-72
2022/10/24 05:06:06;;;;;;;4.07;1.40;;;;;;;15.22;75.73;100275.94;5114037;27;20032;-72
2022/10/24 05:08:35;;;;;;;6.38;1.23;;;;;;;15.22;75.70;100270.63;5117487;27;20036;-73
2022/10/24 05:11:03;;;;;;;9.38;1.40;;;;;;;15.25;75.96;100280.25;5122181;27;20496;-72
2022/10/24 05:13:32;;;;;;;4.75;1.40;;;;;;;15.26;76.42;100278.44;5090902;27;20441;-73
2022/10/24 05:16:05;;;;;;;9.35;1.65;;;;;;;15.30;76.31;100283.47;5119844;27;20046;-72
2022/10/24 05:18:33;;;;;;;6.15;1.73;;;;;;;15.35;76.88;100280.53;5124336;27;20519;-73
2022/10/24 05:21:01;;;;;;;5.10;1.02;;;;;;;15.42;76.61;100286.34;5132420;27;20054;-73
2022/10/24 05:23:28;;;;;;;8.75;1.20;;;;;;;15.45;76.41;100279.03;5118492;27;20048;-73
2022/10/24 05:25:56;;;;;;;5.32;1.17;;;;;;;15.51;76.18;100280.47;5113868;28;20044;-73
2022/10/24 05:28:23;;;;;;;4.25;0.82;;;;;;;15.57;76.10;100284.56;5115497;27;20044;-73
2022/10/24 05:30:58;;;;;;;9.55;1.30;;;;;;;15.63;75.74;100277.09;5124341;27;20040;-73
2022/10/24 05:33:25;;;;;;;;;;;;;;;15.64;75.32;100283.25;5116867;27;20044;-73
2022/10/24 05:35:56;;;;;;;6.55;1.00;;;;;;;15.67;74.92;100280.41;5123266;27;20640;-73
2022/10/24 05:38:24;;;;;;;5.70;1.20;;;;;;;15.67;75.14;100283.06;5112521;27;20048;-74
2022/10/24 05:40:53;;;;;;;4.88;1.00;;;;;;;15.64;74.73;100292.09;5129543;27;20032;-74
2022/10/24 05:43:20;;;;;;;4.53;1.10;;;;;;;15.59;74.91;100291.50;5121688;27;20040;-73
2022/10/24 05:45:49;;;;;;;5.78;1.10;;;;;;;15.55;75.13;100292.66;5123486;27;20872;-74
2022/10/24 05:48:17;;;;;;;7.05;1.30;;;;;;;15.52;75.22;100298.97;5133959;27;20054;-74
2022/10/24 05:50:45;;;;;;;6.60;1.25;;;;;;;15.51;75.38;100307.91;5133055;27;20036;-73
2022/10/24 05:53:12;;;;;;;7.10;1.08;;;;;;;15.51;74.73;100305.25;5131466;27;20047;-75
2022/10/24 05:55:39;;;;;;;7.45;1.58;;;;;;;15.55;75.29;100305.94;5134506;27;20046;-73
2022/10/24 05:58:06;;;;;;;6.53;1.27;;;;;;;15.62;75.44;100309.03;5133676;27;20529;-73
2022/10/24 06:00:33;;;;;;;7.63;1.15;;;;;;;15.68;75.32;100314.00;5121287;27;20119;-73
2022/10/24 06:03:00;;;;;;;5.63;1.30;;;;;;;15.72;75.34;100309.34;5126267;27;20093;-73
2022/10/24 06:05:28;;;;;;;6.63;1.25;;;;;;;15.75;74.27;100310.03;5113511;27;20542;-74
2022/10/24 06:07:58;;;;;;;6.18;1.05;;;;;;;15.79;74.48;100306.25;5123733;27;20047;-75
2022/10/24 06:10:25;;;;;;;4.82;0.98;;;;;;;15.80;74.37;100304.44;5123541;27;20118;-73
2022/10/24 06:12:52;;;;;;;5.65;1.20;;;;;;;15.81;74.57;100316.78;5122395;27;20083;-73
2022/10/24 06:15:23;;;;;;;6.78;1.40;;;;;;;15.89;74.37;100303.91;5117065;27;20070;-73
2022/10/24 06:17:51;;;;;;;6.32;1.20;;;;;;;15.89;74.01;100305.72;5121894;27;20058;-74
2022/10/24 06:20:18;;;;;;;4.70;1.10;;;;;;;15.91;74.10;100306.47;5116574;27;20543;-74
2022/10/24 06:22:47;;;;;;;6.72;1.00;;;;;;;15.88;74.03;100294.22;5112321;27;20047;-72
2022/10/24 06:25:16;;;;;;;8.85;1.60;;;;;;;15.91;73.56;100293.19;5122496;27;20115;-72
2022/10/24 06:27:43;;;;;;;6.40;1.15;;;;;;;15.88;73.43;100301.34;5123959;27;20040;-73
2022/10/24 06:30:10;;;;;;;6.97;1.63;;;;;;;15.82;73.59;100311.34;5115678;27;20055;-72
2022/10/24 06:32:39;;;;;;;6.03;1.00;;;;;;;15.79;73.60;100306.25;5122471;27;20068;-72
2022/10/24 06:35:13;;;;;;;7.10;1.10;;;;;;;15.82;73.61;100307.84;5119743;27;20039;-71
2022/10/24 06:37:42;;;;;;;7.22;1.15;;;;;;;15.82;73.90;100311.34;5121469;27;20032;-73
2022/10/24 06:40:15;;;;;;;6.57;1.70;;;;;;;15.84;73.83;100314.81;5125105;27;20036;-71
2022/10/24 06:42:42;;;;;;;6.05;1.40;;;;;;;15.82;73.62;100308.69;5123461;27;20042;-72
2022/10/24 06:45:10;;;;;;;10.25;1.27;;;;;;;15.80;73.71;100309.75;5126906;27;20524;-71
2022/10/24 06:47:37;;;;;;;8.60;1.90;;;;;;;15.75;73.78;100315.34;5118982;27;20610;-71
2022/10/24 06:50:06;;;;;;;7.63;1.40;;;;;;;15.73;73.62;100325.19;5126979;27;20036;-71
2022/10/24 06:52:33;;;;;;;10.70;1.98;;;;;;;15.72;74.02;100323.50;5113948;27;20040;-71
2022/10/24 06:55:00;;;;;;;8.63;1.50;;;;;;;15.71;74.04;100326.25;5114636;27;20047;-71
2022/10/24 06:57:27;;;;;;;7.60;1.42;;;;;;;15.71;73.73;100328.91;5115224;27;20075;-72
2022/10/24 06:59:54;;;;;;;11.20;1.48;;;;;;;15.69;73.95;100321.88;5122789;27;20040;-69
2022/10/24 07:02:21;;;;;;;12.60;1.23;;;;;;;15.67;73.85;100323.75;5113799;27;20048;-70
2022/10/24 07:04:48;;;;;;;7.50;1.52;;;;;;;15.64;73.95;100323.09;5119402;27;20493;-70
2022/10/24 07:07:20;;;;;;;12.02;2.00;;;;;;;15.62;73.66;100330.31;5124080;27;20043;-69
2022/10/24 07:09:56;;;;;;;9.20;1.13;;;;;;;15.63;73.85;100334.66;5121664;27;20457;-70
2022/10/24 07:12:25;;;;;;;11.63;1.25;;;;;;;15.62;73.86;100335.63;5130155;27;20047;-70
2022/10/24 07:14:52;;;;;;;5.38;1.23;;;;;;;15.67;73.65;100344.19;5118982;27;20043;-69
2022/10/24 07:17:19;;;;;;;5.50;1.10;;;;;;;15.70;73.85;100341.34;5121146;27;20060;-69
2022/10/24 07:19:53;;;;;;;11.93;2.13;;;;;;;15.73;73.78;100351.78;5126469;27;20036;-69
2022/10/24 07:22:20;;;;;;;;;;;;;;;15.73;73.79;100356.25;5129793;27;20035;-69
2022/10/24 07:24:55;;;;;;;4.53;0.93;;;;;;;15.77;73.61;100355.97;5116396;27;19924;-69
2022/10/24 07:27:22;;;;;;;;;;;;;;;15.81;73.48;100357.50;5130809;27;20036;-69
2022/10/24 07:29:50;;;;;;;8.10;1.40;;;;;;;15.87;73.49;100360.75;5114393;27;19935;-69
2022/10/24 07:32:20;;;;;;;9.88;1.50;;;;;;;15.89;73.60;100356.22;5118310;27;20047;-69
2022/10/24 07:34:47;;;;;;;7.38;1.25;;;;;;;15.94;73.30;100362.09;5126842;27;20044;-69
2022/10/24 07:37:17;;;;;;;7.30;1.20;;;;;;;16.00;73.00;100359.09;5120789;27;20044;-69
2022/10/24 07:39:45;;;;;;;6.85;1.45;;;;;;;16.02;73.03;100362.50;5117901;27;20059;-69
2022/10/24 07:42:14;;;;;;;3.35;1.02;;;;;;;16.08;73.02;100358.59;5116984;27;20485;-69
2022/10/24 07:44:41;;;;;;;6.82;1.60;;;;;;;16.13;72.74;100370.66;5127546;27;20044;-69
2022/10/24 07:47:08;;;;;;;6.22;1.23;;;;;;;16.19;72.65;100371.25;5120223;27;20043;-69
2022/10/24 07:49:37;;;;;;;11.07;1.40;;;;;;;16.24;72.35;100372.69;5125219;27;20786;-68
2022/10/24 07:52:04;;;;;;;10.93;1.80;;;;;;;16.30;72.06;100368.78;5115148;27;20051;-71
2022/10/24 07:54:32;;;;;;;7.30;1.13;;;;;;;16.41;72.05;100381.41;5115782;27;20089;-71
2022/10/24 07:57:04;;;;;;;5.65;1.10;;;;;;;16.65;71.45;100381.66;5111145;27;20040;-74
2022/10/24 07:59:31;;;;;;;9.18;1.63;;;;;;;16.73;71.45;100382.06;5113276;27;20454;-73
2022/10/24 08:02:15;;;;;;;7.68;1.40;;;;;;;16.79;71.00;100379.94;5118952;27;20146;-72
2022/10/24 08:04:43;;;;;;;13.30;1.60;;;;;;;16.82;70.77;100372.63;5119423;27;20123;-71
2022/10/24 08:07:12;;;;;;;11.63;1.58;;;;;;;16.80;70.63;100379.84;5119317;27;20043;-74
2022/10/24 08:09:43;;;;;;;6.95;1.38;;;;;;;16.81;70.08;100383.38;5121552;27;20497;-72
2022/10/24 08:12:12;;;;;;;10.80;1.65;;;;;;;16.74;70.36;100386.41;5122949;27;20067;-72
2022/10/24 08:14:40;;;;;;;9.93;1.50;;;;;;;16.77;70.59;100393.38;5120284;27;20044;-72
2022/10/24 08:17:09;;;;;;;8.93;1.30;;;;;;;16.81;69.78;100391.38;5121024;27;20032;-72
2022/10/24 08:19:40;;;;;;;8.23;1.55;;;;;;;16.83;69.88;100395.63;5124062;27;20235;-72
2022/10/24 08:22:10;;;;;;;18.83;2.72;;;;;;;16.80;70.27;100410.94;5114605;27;20515;-72
2022/10/24 08:24:37;;;;;;;11.65;1.95;;;;;;;16.77;70.73;100415.50;5121447;27;20052;-71
2022/10/24 08:27:04;;;;;;;6.85;1.33;;;;;;;16.81;70.61;100418.81;5127213;27;20085;-71
2022/10/24 08:29:31;;;;;;;10.20;1.15;;;;;;;16.83;71.12;100416.91;5124419;27;20992;-71
2022/10/24 08:31:59;;;;;;;11.27;1.55;;;;;;;16.81;70.99;100424.13;5114173;27;20036;-70
2022/10/24 08:34:26;;;;;;;18.40;1.52;;;;;;;16.83;70.87;100424.91;5131385;27;20462;-70
2022/10/24 08:36:53;;;;;;;11.57;1.80;;;;;;;16.84;71.01;100423.13;5121789;27;20486;-70
2022/10/24 08:39:26;;;;;;;6.57;1.30;;;;;;;16.91;70.86;100430.59;5124378;27;20086;-71
2022/10/24 08:42:00;;;;;;;7.30;1.55;;;;;;;16.97;70.65;100433.88;5122880;27;20044;-69
2022/10/24 08:44:35;;;;;;;4.90;1.30;;;;;;;16.98;70.88;100438.25;5122619;27;20476;-69
2022/10/24 08:47:12;;;;;;;16.75;2.40;;;;;;;17.03;68.93;100430.81;5118231;27;20500;-70
2022/10/24 08:50:16;;;;;;;11.20;1.55;;;;;;;17.08;68.86;100442.03;5117425;27;20592;-70
2022/10/24 08:52:57;;;;;;;13.40;1.77;;;;;;;17.08;69.21;100442.88;5119660;27;20036;-70
2022/10/24 08:55:48;;;;;;;9.25;1.33;;;;;;;17.13;68.57;100447.06;5117184;27;20582;-70
2022/10/24 08:58:22;;;;;;;7.57;1.15;;;;;;;17.21;67.62;100437.59;5116379;27;20103;-69
2022/10/24 09:00:53;;;;;;;9.65;1.98;;;;;;;17.26;67.56;100444.44;5120940;27;20040;-70
2022/10/24 09:03:33;;;;;;;17.50;1.73;;;;;;;17.29;66.93;100462.91;5118516;27;20513;-70
2022/10/24 09:06:27;;;;;;;9.95;1.67;;;;;;;17.30;66.30;100457.47;5121089;27;20115;-70
2022/10/24 09:08:57;;;;;;;;;;;;;;;17.33;66.51;100456.41;5122735;27;20042;-70
2022/10/24 09:11:52;;;;;;;8.95;1.25;;;;;;;17.29;66.57;100452.25;5119930;27;19970;-70
2022/10/24 09:14:28;;;;;;;;;;;;;;;17.27;66.54;100462.16;5118420;27;20043;-70
2022/10/24 09:17:18;;;;;;;13.38;1.58;;;;;;;17.23;66.93;100459.66;5119640;27;19924;-70
2022/10/24 09:20:01;;;;;;;8.80;1.40;;;;;;;17.31;66.18;100463.63;5119663;27;20036;-70
2022/10/24 09:22:34;;;;;;;14.95;1.83;;;;;;;17.33;66.55;100451.09;5123689;27;20040;-70
2022/10/24 09:25:13;;;;;;;8.98;1.13;;;;;;;17.37;66.28;100455.28;5122007;27;20047;-70
2022/10/24 09:27:41;;;;;;;6.45;1.10;;;;;;;17.44;66.03;100474.38;5127865;27;20129;-70
2022/10/24 09:30:20;;;;;;;15.27;1.38;;;;;;;17.41;66.51;100458.59;5117916;27;20066;-70
2022/10/24 09:32:47;;;;;;;11.65;1.40;;;;;;;17.32;66.13;100490.19;5118631;27;20039;-69
2022/10/24 09:35:22;;;;;;;10.68;1.15;;;;;;;17.34;65.47;100477.66;5120551;27;20123;-70
2022/10/24 09:37:56;;;;;;;11.65;1.67;;;;;;;17.42;65.67;100466.47;5123263;27;20040;-70
2022/10/24 09:40:26;;;;;;;12.40;1.80;;;;;;;17.46;65.65;100488.44;5123053;27;20039;-70
2022/10/24 09:43:14;;;;;;;15.52;1.70;;;;;;;17.50;65.87;100471.31;5117929;27;20039;-69
2022/10/24 09:45:47;;;;;;;17.73;1.80;;;;;;;17.59;65.73;100481.34;5119246;27;20137;-70
2022/10/24 09:48:43;;;;;;;9.30;1.40;;;;;;;17.63;66.53;100484.66;5114060;27;20634;-69
2022/10/24 09:51:44;;;;;;;21.33;2.17;;;;;;;17.78;65.66;100491.69;5112548;27;20090;-69
2022/10/24 09:54:17;;;;;;;14.82;1.60;;;;;;;17.76;66.21;100490.91;5130787;27;20040;-69
2022/10/24 09:57:02;;;;;;;19.33;1.67;;;;;;;17.97;65.55;100493.97;5124454;27;20039;-69
2022/10/24 09:59:35;;;;;;;14.00;1.85;;;;;;;18.03;65.63;100499.88;5117998;27;20118;-70
2022/10/24 10:02:33;;;;;;;11.50;1.70;;;;;;;18.07;65.37;100498.69;5117510;27;20040;-69
2022/10/24 10:05:03;;;;;;;16.55;2.00;;;;;;;18.07;65.69;100507.56;5115582;27;20767;-69
2022/10/24 10:07:40;;;;;;;9.77;1.50;;;;;;;18.07;66.06;100515.56;5120576;27;20598;-69
2022/10/24 10:10:17;;;;;;;7.25;1.60;;;;;;;18.07;65.78;100512.91;5112377;27;20704;-70
2022/10/24 10:13:03;;;;;;;13.90;1.98;;;;;;;18.04;65.59;100504.25;5116994;27;20539;-70
2022/10/24 10:15:51;;;;;;;7.85;1.63;;;;;;;18.01;65.29;100521.28;5119825;27;20093;-69
2022/10/24 10:18:40;;;;;;;21.77;3.05;;;;;;;18.00;65.78;100517.78;5117594;27;20063;-70
2022/10/24 10:21:23;;;;;;;16.98;2.30;;;;;;;18.11;65.79;100514.38;5119221;27;20039;-70
2022/10/24 10:23:55;;;;;;;13.60;1.77;;;;;;;18.14;65.33;100516.84;5119882;27;20178;-69
2022/10/24 10:26:41;;;;;;;18.25;2.35;;;;;;;18.19;65.56;100521.03;5128284;27;20036;-69
2022/10/24 10:29:17;;;;;;;12.20;1.38;;;;;;;18.27;65.30;100516.03;5113204;27;20077;-70
2022/10/24 10:32:05;;;;;;;10.23;1.73;;;;;;;18.24;64.64;100510.91;5122869;27;20080;-70
2022/10/24 10:34:50;;;;;;;14.18;1.77;;;;;;;18.06;64.59;100518.34;5113891;27;20044;-70
2022/10/24 10:37:30;;;;;;;13.57;1.83;;;;;;;18.00;64.87;100525.78;5124039;27;20036;-70
2022/10/24 10:40:00;;;;;;;8.38;1.40;;;;;;;17.96;64.46;100526.94;5117076;27;20547;-70
2022/10/24 10:42:49;;;;;;;9.15;1.70;;;;;;;17.95;64.84;100530.56;5119338;27;20512;-70
2022/10/24 10:45:58;;;;;;;11.40;1.50;;;;;;;17.79;65.12;100520.03;5120278;27;20062;-70
2022/10/24 10:49:18;;;;;;;6.82;1.88;;;;;;;17.68;65.66;100538.56;5117782;27;20538;-71
2022/10/24 10:52:04;;;;;;;8.20;1.73;;;;;;;17.67;65.77;100551.00;5122626;27;20546;-70
2022/10/24 10:54:46;;;;;;;11.95;1.63;;;;;;;17.69;66.25;100557.09;5119825;27;20044;-69
2022/10/24 10:57:20;;;;;;;8.18;1.50;;;;;;;17.71;66.95;100567.66;5119694;27;20072;-70
2022/10/24 11:00:07;;;;;;;10.15;2.35;;;;;;;17.68;67.50;100566.03;5120221;27;20105;-71
2022/10/24 11:02:58;;;;;;;10.38;1.60;;;;;;;17.73;67.93;100563.09;5118737;27;20032;-68
2022/10/24 11:06:10;;;;;;;10.75;2.30;;;;;;;17.73;67.86;100571.06;5116928;27;20035;-70
2022/10/24 11:08:59;;;;;;;10.43;1.90;;;;;;;17.60;67.85;100573.69;5111704;27;20077;-69
2022/10/24 11:11:34;;;;;;;10.70;1.70;;;;;;;17.46;68.17;100569.25;5122112;27;20497;-69
2022/10/24 11:14:52;;;;;;;11.75;1.85;;;;;;;17.46;68.42;100568.38;5111760;27;20048;-69
2022/10/24 11:17:28;;;;;;;13.20;1.92;;;;;;;17.56;68.81;100574.81;5085212;27;20060;-70
2022/10/24 11:20:12;;;;;;;12.27;2.20;;;;;;;17.75;68.81;100569.19;5122579;27;20892;-69
2022/10/24 11:22:54;;;;;;;12.75;1.88;;;;;;;17.85;68.53;100567.63;5116601;27;20125;-69
2022/10/24 11:25:41;;;;;;;21.30;2.00;;;;;;;17.97;66.98;100581.97;5113225;27;20047;-69
2022/10/24 11:28:30;;;;;;;9.77;1.50;;;;;;;18.06;67.71;100572.53;5137797;27;20771;-68
2022/10/24 11:31:04;;;;;;;8.48;1.50;;;;;;;18.06;67.22;100579.69;5117235;27;20048;-69
2022/10/24 11:33:43;;;;;;;9.73;2.30;;;;;;;18.08;67.58;100583.09;5120112;27;20040;-68
2022/10/24 11:36:59;;;;;;;11.32;1.58;;;;;;;18.13;66.89;100589.00;5120304;27;20051;-68
2022/10/24 11:40:05;;;;;;;11.63;2.07;;;;;;;18.10;67.06;100578.50;5120796;27;20040;-68
2022/10/24 11:42:56;;;;;;;14.20;1.98;;;;;;;18.05;67.09;100607.31;5124537;27;20044;-68
2022/10/24 11:45:36;;;;;;;8.07;1.45;;;;;;;17.93;67.88;100603.59;5124869;27;20118;-68
2022/10/24 11:48:18;;;;;;;8.02;1.33;;;;;;;17.75;68.41;100600.31;5122972;27;20043;-69
2022/10/24 11:50:57;;;;;;;17.17;2.33;;;;;;;17.55;69.34;100602.44;5116646;27;20545;-69
2022/10/24 11:53:30;;;;;;;11.77;1.73;;;;;;;17.45;69.55;100598.66;5123817;27;20062;-71
2022/10/24 11:56:12;;;;;;;8.97;1.70;;;;;;;17.32;70.21;100593.22;5124464;27;20040;-69